sensor_id;sensor_type;location;lat;lon;timestamp;temperature;humidity
17859;DHT22;35426;30.698;104.050;2023-04-25T00:02:08;17.10;99.90
17859;DHT22;35426;30.698;104.050;2023-04-25T00:04:48;17.50;99.90
17859;DHT22;35426;30.698;104.050;2023-04-25T00:07:22;17.70;99.90
17859;DHT22;35426;30.698;104.050;2023-04-25T00:09:58;17.90;99.90
17859;DHT22;35426;30.698;104.050;2023-04-25T00:12:31;17.80;99.90
17859;DHT22;35426;30.698;104.050;2023-04-25T00:15:05;17.90;99.90
17859;DHT22;35426;30.698;104.050;2023-04-25T00:17:39;17.70;99.90
17859;DHT22;35426;30.698;104.050;2023-04-25T00:20:13;17.40;99.90
17859;DHT22;35426;30.698;104.050;2023-04-25T00:22:47;17.40;99.90
17859;DHT22;35426;30.698;104.050;2023-04-25T00:25:22;17.70;99.90
17859;DHT22;35426;30.698;104.050;2023-04-25T00:27:56;18.00;99.90
17859;DHT22;35426;30.698;104.050;2023-04-25T00:30:29;18.10;99.90
17859;DHT22;35426;30.698;104.050;2023-04-25T00:33:03;18.30;99.90
17859;DHT22;35426;30.698;104.050;2023-04-25T00:35:39;18.80;99.90
17859;DHT22;35426;30.698;104.050;2023-04-25T00:38:12;19.20;99.90
17859;DHT22;35426;30.698;104.050;2023-04-25T00:40:47;19.50;99.90
17859;DHT22;35426;30.698;104.050;2023-04-25T00:43:20;19.40;99.90
17859;DHT22;35426;30.698;104.050;2023-04-25T00:45:54;20.60;99.90
17859;DHT22;35426;30.698;104.050;2023-04-25T00:48:28;21.20;99.90
17859;DHT22;35426;30.698;104.050;2023-04-25T00:51:02;22.10;99.90
17859;DHT22;35426;30.698;104.050;2023-04-25T00:53:36;22.70;99.90
17859;DHT22;35426;30.698;104.050;2023-04-25T00:56:11;22.90;99.90
17859;DHT22;35426;30.698;104.050;2023-04-25T00:58:45;22.90;99.90
17859;DHT22;35426;30.698;104.050;2023-04-25T01:01:18;23.80;99.90
17859;DHT22;35426;30.698;104.050;2023-04-25T01:03:52;24.70;99.90
17859;DHT22;35426;30.698;104.050;2023-04-25T01:06:26;24.90;99.90
17859;DHT22;35426;30.698;104.050;2023-04-25T01:09:00;25.00;99.90
17859;DHT22;35426;30.698;104.050;2023-04-25T01:11:37;25.40;99.90
17859;DHT22;35426;30.698;104.050;2023-04-25T01:14:10;25.90;99.90
17859;DHT22;35426;30.698;104.050;2023-04-25T01:16:44;25.60;99.90
17859;DHT22;35426;30.698;104.050;2023-04-25T01:19:20;24.90;99.90
17859;DHT22;35426;30.698;104.050;2023-04-25T01:21:55;24.40;99.90
17859;DHT22;35426;30.698;104.050;2023-04-25T01:24:32;23.80;99.90
17859;DHT22;35426;30.698;104.050;2023-04-25T01:27:05;23.80;99.90
17859;DHT22;35426;30.698;104.050;2023-04-25T01:29:39;23.10;99.90
17859;DHT22;35426;30.698;104.050;2023-04-25T01:32:13;23.40;99.90
17859;DHT22;35426;30.698;104.050;2023-04-25T01:34:46;23.40;99.90
17859;DHT22;35426;30.698;104.050;2023-04-25T01:37:23;22.90;99.90
17859;DHT22;35426;30.698;104.050;2023-04-25T01:39:56;22.90;99.90
17859;DHT22;35426;30.698;104.050;2023-04-25T01:42:30;23.00;99.90
17859;DHT22;35426;30.698;104.050;2023-04-25T01:45:04;22.60;99.90
17859;DHT22;35426;30.698;104.050;2023-04-25T01:47:39;22.50;99.90
17859;DHT22;35426;30.698;104.050;2023-04-25T01:50:14;22.10;99.90
17859;DHT22;35426;30.698;104.050;2023-04-25T01:52:50;21.90;99.90
17859;DHT22;35426;30.698;104.050;2023-04-25T01:55:23;21.90;99.90
17859;DHT22;35426;30.698;104.050;2023-04-25T01:58:03;21.70;99.90
17859;DHT22;35426;30.698;104.050;2023-04-25T02:01:02;21.70;99.90
17859;DHT22;35426;30.698;104.050;2023-04-25T02:03:44;21.70;99.90
17859;DHT22;35426;30.698;104.050;2023-04-25T02:06:26;21.40;99.90
17859;DHT22;35426;30.698;104.050;2023-04-25T02:09:02;21.20;99.90
17859;DHT22;35426;30.698;104.050;2023-04-25T02:11:40;21.20;99.90
17859;DHT22;35426;30.698;104.050;2023-04-25T02:14:28;21.30;99.90
17859;DHT22;35426;30.698;104.050;2023-04-25T02:17:13;21.30;99.90
17859;DHT22;35426;30.698;104.050;2023-04-25T02:19:46;21.00;99.90
17859;DHT22;35426;30.698;104.050;2023-04-25T02:22:20;20.80;99.90
17859;DHT22;35426;30.698;104.050;2023-04-25T02:24:55;20.70;99.90
17859;DHT22;35426;30.698;104.050;2023-04-25T02:27:29;20.40;99.90
17859;DHT22;35426;30.698;104.050;2023-04-25T02:30:02;20.50;99.90
17859;DHT22;35426;30.698;104.050;2023-04-25T02:32:36;20.50;99.90
17859;DHT22;35426;30.698;104.050;2023-04-25T02:35:10;20.40;99.90
17859;DHT22;35426;30.698;104.050;2023-04-25T02:37:43;20.50;99.90
17859;DHT22;35426;30.698;104.050;2023-04-25T02:40:25;20.60;99.90
17859;DHT22;35426;30.698;104.050;2023-04-25T02:42:59;20.50;99.90
17859;DHT22;35426;30.698;104.050;2023-04-25T02:45:33;20.40;99.90
17859;DHT22;35426;30.698;104.050;2023-04-25T02:48:08;20.80;99.90
17859;DHT22;35426;30.698;104.050;2023-04-25T02:50:41;21.10;99.90
17859;DHT22;35426;30.698;104.050;2023-04-25T02:53:14;21.30;99.90
17859;DHT22;35426;30.698;104.050;2023-04-25T02:55:52;21.30;99.90
17859;DHT22;35426;30.698;104.050;2023-04-25T02:58:28;21.50;99.90
17859;DHT22;35426;30.698;104.050;2023-04-25T03:01:02;21.50;99.90
17859;DHT22;35426;30.698;104.050;2023-04-25T03:03:35;22.00;99.90
17859;DHT22;35426;30.698;104.050;2023-04-25T03:06:09;22.60;99.90
17859;DHT22;35426;30.698;104.050;2023-04-25T03:08:42;22.60;99.90
17859;DHT22;35426;30.698;104.050;2023-04-25T03:11:18;22.70;99.90
17859;DHT22;35426;30.698;104.050;2023-04-25T03:13:52;23.00;99.90
17859;DHT22;35426;30.698;104.050;2023-04-25T03:16:25;23.50;99.90
17859;DHT22;35426;30.698;104.050;2023-04-25T03:18:58;24.20;99.90
17859;DHT22;35426;30.698;104.050;2023-04-25T03:21:32;24.70;99.90
17859;DHT22;35426;30.698;104.050;2023-04-25T03:24:06;24.90;99.90
17859;DHT22;35426;30.698;104.050;2023-04-25T03:26:43;25.50;99.90
17859;DHT22;35426;30.698;104.050;2023-04-25T03:29:16;26.10;99.90
17859;DHT22;35426;30.698;104.050;2023-04-25T03:31:50;25.70;99.90
17859;DHT22;35426;30.698;104.050;2023-04-25T03:34:24;25.50;99.90
17859;DHT22;35426;30.698;104.050;2023-04-25T03:36:58;25.50;99.90
17859;DHT22;35426;30.698;104.050;2023-04-25T03:39:37;24.90;99.90
17859;DHT22;35426;30.698;104.050;2023-04-25T03:42:12;25.20;99.90
17859;DHT22;35426;30.698;104.050;2023-04-25T03:44:46;25.50;99.90
17859;DHT22;35426;30.698;104.050;2023-04-25T03:47:19;25.40;99.90
17859;DHT22;35426;30.698;104.050;2023-04-25T03:49:52;26.00;99.90
17859;DHT22;35426;30.698;104.050;2023-04-25T03:52:25;26.30;99.90
17859;DHT22;35426;30.698;104.050;2023-04-25T03:54:59;26.10;99.90
17859;DHT22;35426;30.698;104.050;2023-04-25T03:57:33;25.80;99.90
17859;DHT22;35426;30.698;104.050;2023-04-25T04:00:07;25.50;99.90
17859;DHT22;35426;30.698;104.050;2023-04-25T04:02:43;25.30;99.90
17859;DHT22;35426;30.698;104.050;2023-04-25T04:05:21;24.80;99.90
17859;DHT22;35426;30.698;104.050;2023-04-25T04:08:14;24.90;99.90
17859;DHT22;35426;30.698;104.050;2023-04-25T04:10:47;24.90;99.90
17859;DHT22;35426;30.698;104.050;2023-04-25T04:13:22;24.50;99.90
17859;DHT22;35426;30.698;104.050;2023-04-25T04:15:55;24.40;99.90
17859;DHT22;35426;30.698;104.050;2023-04-25T04:18:29;24.20;99.90
17859;DHT22;35426;30.698;104.050;2023-04-25T04:21:04;24.20;99.90
17859;DHT22;35426;30.698;104.050;2023-04-25T04:23:41;24.10;99.90
17859;DHT22;35426;30.698;104.050;2023-04-25T04:26:14;24.10;99.90
17859;DHT22;35426;30.698;104.050;2023-04-25T04:29:01;23.80;99.90
17859;DHT22;35426;30.698;104.050;2023-04-25T04:31:55;24.30;99.90
17859;DHT22;35426;30.698;104.050;2023-04-25T04:34:28;24.70;99.90
17859;DHT22;35426;30.698;104.050;2023-04-25T04:37:01;24.20;99.90
17859;DHT22;35426;30.698;104.050;2023-04-25T04:39:37;23.90;99.90
17859;DHT22;35426;30.698;104.050;2023-04-25T04:42:30;23.90;99.90
17859;DHT22;35426;30.698;104.050;2023-04-25T04:45:15;23.90;99.90
17859;DHT22;35426;30.698;104.050;2023-04-25T04:48:09;24.10;99.90
17859;DHT22;35426;30.698;104.050;2023-04-25T04:50:56;24.30;99.90
17859;DHT22;35426;30.698;104.050;2023-04-25T04:54:01;24.20;99.90
17859;DHT22;35426;30.698;104.050;2023-04-25T04:57:01;24.40;99.90
17859;DHT22;35426;30.698;104.050;2023-04-25T04:59:45;24.50;99.90
17859;DHT22;35426;30.698;104.050;2023-04-25T05:02:38;24.50;99.90
17859;DHT22;35426;30.698;104.050;2023-04-25T05:05:34;24.50;99.90
17859;DHT22;35426;30.698;104.050;2023-04-25T05:08:13;24.50;99.90
17859;DHT22;35426;30.698;104.050;2023-04-25T05:10:58;24.40;99.90
17859;DHT22;35426;30.698;104.050;2023-04-25T05:13:40;24.30;99.90
17859;DHT22;35426;30.698;104.050;2023-04-25T05:16:27;24.40;99.90
17859;DHT22;35426;30.698;104.050;2023-04-25T05:19:20;24.50;99.90
17859;DHT22;35426;30.698;104.050;2023-04-25T05:22:11;24.20;99.90
17859;DHT22;35426;30.698;104.050;2023-04-25T05:25:04;23.80;99.90
17859;DHT22;35426;30.698;104.050;2023-04-25T05:28:06;23.60;99.90
17859;DHT22;35426;30.698;104.050;2023-04-25T05:31:06;23.50;99.90
17859;DHT22;35426;30.698;104.050;2023-04-25T05:33:49;23.70;99.90
17859;DHT22;35426;30.698;104.050;2023-04-25T05:36:28;24.00;99.90
17859;DHT22;35426;30.698;104.050;2023-04-25T05:39:03;23.90;99.90
17859;DHT22;35426;30.698;104.050;2023-04-25T05:41:57;23.90;99.90
17859;DHT22;35426;30.698;104.050;2023-04-25T05:44:48;23.90;99.90
17859;DHT22;35426;30.698;104.050;2023-04-25T05:47:35;24.00;99.90
17859;DHT22;35426;30.698;104.050;2023-04-25T05:50:15;23.70;99.90
17859;DHT22;35426;30.698;104.050;2023-04-25T05:53:00;23.20;99.90
17859;DHT22;35426;30.698;104.050;2023-04-25T05:55:44;23.50;99.90
17859;DHT22;35426;30.698;104.050;2023-04-25T05:58:25;23.40;99.90
17859;DHT22;35426;30.698;104.050;2023-04-25T06:01:01;23.70;99.90
17859;DHT22;35426;30.698;104.050;2023-04-25T06:03:35;23.60;99.90
17859;DHT22;35426;30.698;104.050;2023-04-25T06:06:09;23.50;99.90
17859;DHT22;35426;30.698;104.050;2023-04-25T06:08:47;23.40;99.90
17859;DHT22;35426;30.698;104.050;2023-04-25T06:11:21;23.40;99.90
17859;DHT22;35426;30.698;104.050;2023-04-25T06:13:55;23.60;99.90
17859;DHT22;35426;30.698;104.050;2023-04-25T06:16:28;23.70;99.90
17859;DHT22;35426;30.698;104.050;2023-04-25T06:19:01;23.40;99.90
17859;DHT22;35426;30.698;104.050;2023-04-25T06:21:34;23.20;99.90
17859;DHT22;35426;30.698;104.050;2023-04-25T06:24:11;23.10;99.90
17859;DHT22;35426;30.698;104.050;2023-04-25T06:26:46;23.10;99.90
17859;DHT22;35426;30.698;104.050;2023-04-25T06:29:20;23.40;99.90
17859;DHT22;35426;30.698;104.050;2023-04-25T06:31:54;23.50;99.90
17859;DHT22;35426;30.698;104.050;2023-04-25T06:34:27;23.50;99.90
17859;DHT22;35426;30.698;104.050;2023-04-25T06:37:01;23.60;99.90
17859;DHT22;35426;30.698;104.050;2023-04-25T06:39:37;23.50;99.90
17859;DHT22;35426;30.698;104.050;2023-04-25T06:42:12;23.50;99.90
17859;DHT22;35426;30.698;104.050;2023-04-25T06:44:54;23.70;99.90
17859;DHT22;35426;30.698;104.050;2023-04-25T06:47:27;23.80;99.90
17859;DHT22;35426;30.698;104.050;2023-04-25T06:50:07;24.00;99.90
17859;DHT22;35426;30.698;104.050;2023-04-25T06:52:43;24.10;99.90
17859;DHT22;35426;30.698;104.050;2023-04-25T06:55:18;23.90;99.90
17859;DHT22;35426;30.698;104.050;2023-04-25T06:58:13;24.00;99.90
17859;DHT22;35426;30.698;104.050;2023-04-25T07:00:53;24.00;99.90
17859;DHT22;35426;30.698;104.050;2023-04-25T07:03:27;24.00;99.90
17859;DHT22;35426;30.698;104.050;2023-04-25T07:06:06;23.80;99.90
17859;DHT22;35426;30.698;104.050;2023-04-25T07:08:40;23.40;99.90
17859;DHT22;35426;30.698;104.050;2023-04-25T07:11:15;23.50;99.90
17859;DHT22;35426;30.698;104.050;2023-04-25T07:13:48;23.60;99.90
17859;DHT22;35426;30.698;104.050;2023-04-25T07:16:23;23.60;99.90
17859;DHT22;35426;30.698;104.050;2023-04-25T07:18:57;23.50;99.90
17859;DHT22;35426;30.698;104.050;2023-04-25T07:21:31;23.50;99.90
17859;DHT22;35426;30.698;104.050;2023-04-25T07:24:06;23.60;99.90
17859;DHT22;35426;30.698;104.050;2023-04-25T07:26:46;23.90;99.90
17859;DHT22;35426;30.698;104.050;2023-04-25T07:29:35;23.80;99.90
17859;DHT22;35426;30.698;104.050;2023-04-25T07:32:08;23.90;99.90
17859;DHT22;35426;30.698;104.050;2023-04-25T07:34:44;23.90;99.90
17859;DHT22;35426;30.698;104.050;2023-04-25T07:37:17;23.70;99.90
17859;DHT22;35426;30.698;104.050;2023-04-25T07:40:01;23.70;99.90
17859;DHT22;35426;30.698;104.050;2023-04-25T07:42:37;23.70;99.90
17859;DHT22;35426;30.698;104.050;2023-04-25T07:45:12;23.60;99.90
17859;DHT22;35426;30.698;104.050;2023-04-25T07:47:46;23.70;99.90
17859;DHT22;35426;30.698;104.050;2023-04-25T07:50:20;23.50;99.90
17859;DHT22;35426;30.698;104.050;2023-04-25T07:52:55;23.50;99.90
17859;DHT22;35426;30.698;104.050;2023-04-25T07:55:34;23.40;99.90
17859;DHT22;35426;30.698;104.050;2023-04-25T07:58:17;23.60;99.90
17859;DHT22;35426;30.698;104.050;2023-04-25T08:01:00;23.80;99.90
17859;DHT22;35426;30.698;104.050;2023-04-25T08:03:36;23.90;99.90
17859;DHT22;35426;30.698;104.050;2023-04-25T08:06:24;23.80;99.90
17859;DHT22;35426;30.698;104.050;2023-04-25T08:09:06;23.90;99.90
17859;DHT22;35426;30.698;104.050;2023-04-25T08:11:43;23.90;99.90
17859;DHT22;35426;30.698;104.050;2023-04-25T08:14:24;24.00;99.90
17859;DHT22;35426;30.698;104.050;2023-04-25T08:16:58;23.90;99.90
17859;DHT22;35426;30.698;104.050;2023-04-25T08:19:35;23.90;99.90
17859;DHT22;35426;30.698;104.050;2023-04-25T08:22:13;23.80;99.90
17859;DHT22;35426;30.698;104.050;2023-04-25T08:24:55;23.80;99.90
17859;DHT22;35426;30.698;104.050;2023-04-25T08:27:28;24.00;99.90
17859;DHT22;35426;30.698;104.050;2023-04-25T08:30:03;24.20;99.90
17859;DHT22;35426;30.698;104.050;2023-04-25T08:32:37;24.30;99.90
17859;DHT22;35426;30.698;104.050;2023-04-25T08:35:27;24.40;99.90
17859;DHT22;35426;30.698;104.050;2023-04-25T08:38:01;24.30;99.90
17859;DHT22;35426;30.698;104.050;2023-04-25T08:40:38;24.20;99.90
17859;DHT22;35426;30.698;104.050;2023-04-25T08:43:19;24.20;99.90
17859;DHT22;35426;30.698;104.050;2023-04-25T08:45:59;24.00;99.90
17859;DHT22;35426;30.698;104.050;2023-04-25T08:48:54;24.10;99.90
17859;DHT22;35426;30.698;104.050;2023-04-25T08:51:33;24.20;99.90
17859;DHT22;35426;30.698;104.050;2023-04-25T08:54:10;24.50;99.90
17859;DHT22;35426;30.698;104.050;2023-04-25T08:57:04;24.40;99.90
17859;DHT22;35426;30.698;104.050;2023-04-25T08:59:38;24.30;99.90
17859;DHT22;35426;30.698;104.050;2023-04-25T09:02:18;24.40;99.90
17859;DHT22;35426;30.698;104.050;2023-04-25T09:04:54;24.40;99.90
17859;DHT22;35426;30.698;104.050;2023-04-25T09:07:28;24.40;99.90
17859;DHT22;35426;30.698;104.050;2023-04-25T09:10:01;24.50;99.90
17859;DHT22;35426;30.698;104.050;2023-04-25T09:12:38;24.40;99.90
17859;DHT22;35426;30.698;104.050;2023-04-25T09:15:13;24.50;99.90
17859;DHT22;35426;30.698;104.050;2023-04-25T09:18:23;24.50;99.90
17859;DHT22;35426;30.698;104.050;2023-04-25T09:21:06;24.60;99.90
17859;DHT22;35426;30.698;104.050;2023-04-25T09:23:47;24.60;99.90
17859;DHT22;35426;30.698;104.050;2023-04-25T09:26:22;24.50;99.90
17859;DHT22;35426;30.698;104.050;2023-04-25T09:29:05;24.70;99.90
17859;DHT22;35426;30.698;104.050;2023-04-25T09:31:42;24.60;99.90
17859;DHT22;35426;30.698;104.050;2023-04-25T09:34:17;24.40;99.40
17859;DHT22;35426;30.698;104.050;2023-04-25T09:36:56;24.40;99.70
17859;DHT22;35426;30.698;104.050;2023-04-25T09:39:50;24.20;99.50
17859;DHT22;35426;30.698;104.050;2023-04-25T09:42:28;24.10;99.90
17859;DHT22;35426;30.698;104.050;2023-04-25T09:45:06;24.10;99.90
17859;DHT22;35426;30.698;104.050;2023-04-25T09:47:41;24.10;99.30
17859;DHT22;35426;30.698;104.050;2023-04-25T09:50:23;24.10;99.70
17859;DHT22;35426;30.698;104.050;2023-04-25T09:53:07;24.20;99.30
17859;DHT22;35426;30.698;104.050;2023-04-25T09:56:05;24.00;99.70
17859;DHT22;35426;30.698;104.050;2023-04-25T09:58:39;23.90;99.90
17859;DHT22;35426;30.698;104.050;2023-04-25T10:01:13;24.00;99.90
17859;DHT22;35426;30.698;104.050;2023-04-25T10:04:04;24.00;99.90
17859;DHT22;35426;30.698;104.050;2023-04-25T10:07:06;24.00;99.90
17859;DHT22;35426;30.698;104.050;2023-04-25T10:09:39;24.10;99.90
17859;DHT22;35426;30.698;104.050;2023-04-25T10:12:13;24.10;99.90
17859;DHT22;35426;30.698;104.050;2023-04-25T10:14:48;24.10;99.90
17859;DHT22;35426;30.698;104.050;2023-04-25T10:17:21;24.10;99.90
17859;DHT22;35426;30.698;104.050;2023-04-25T10:19:56;24.10;99.90
17859;DHT22;35426;30.698;104.050;2023-04-25T10:22:34;23.90;99.90
17859;DHT22;35426;30.698;104.050;2023-04-25T10:25:12;23.80;99.90
17859;DHT22;35426;30.698;104.050;2023-04-25T10:27:46;23.80;99.90
17859;DHT22;35426;30.698;104.050;2023-04-25T10:30:22;23.80;99.90
17859;DHT22;35426;30.698;104.050;2023-04-25T10:32:56;23.80;99.90
17859;DHT22;35426;30.698;104.050;2023-04-25T10:35:31;23.70;99.90
17859;DHT22;35426;30.698;104.050;2023-04-25T10:38:10;23.80;99.90
17859;DHT22;35426;30.698;104.050;2023-04-25T10:41:05;23.80;99.90
17859;DHT22;35426;30.698;104.050;2023-04-25T10:43:39;23.60;99.90
17859;DHT22;35426;30.698;104.050;2023-04-25T10:46:21;23.60;99.90
17859;DHT22;35426;30.698;104.050;2023-04-25T10:48:58;23.50;99.90
17859;DHT22;35426;30.698;104.050;2023-04-25T10:51:33;23.50;99.90
17859;DHT22;35426;30.698;104.050;2023-04-25T10:54:24;23.50;99.90
17859;DHT22;35426;30.698;104.050;2023-04-25T10:56:59;23.40;99.90
17859;DHT22;35426;30.698;104.050;2023-04-25T10:59:32;23.30;99.90
17859;DHT22;35426;30.698;104.050;2023-04-25T11:02:12;23.20;99.90
17859;DHT22;35426;30.698;104.050;2023-04-25T11:04:46;23.20;99.90
17859;DHT22;35426;30.698;104.050;2023-04-25T11:07:31;23.10;99.90
17859;DHT22;35426;30.698;104.050;2023-04-25T11:10:10;23.10;99.90
17859;DHT22;35426;30.698;104.050;2023-04-25T11:12:47;23.00;99.90
17859;DHT22;35426;30.698;104.050;2023-04-25T11:15:20;22.90;99.90
17859;DHT22;35426;30.698;104.050;2023-04-25T11:17:53;22.80;99.90
17859;DHT22;35426;30.698;104.050;2023-04-25T11:20:27;22.80;99.90
17859;DHT22;35426;30.698;104.050;2023-04-25T11:23:00;22.70;99.90
17859;DHT22;35426;30.698;104.050;2023-04-25T11:25:37;22.60;99.90
17859;DHT22;35426;30.698;104.050;2023-04-25T11:28:11;22.50;99.90
17859;DHT22;35426;30.698;104.050;2023-04-25T11:30:49;22.50;99.90
17859;DHT22;35426;30.698;104.050;2023-04-25T11:33:25;22.40;99.90
17859;DHT22;35426;30.698;104.050;2023-04-25T11:35:59;22.40;99.90
17859;DHT22;35426;30.698;104.050;2023-04-25T11:38:33;22.30;99.90
17859;DHT22;35426;30.698;104.050;2023-04-25T11:41:09;22.20;99.90
17859;DHT22;35426;30.698;104.050;2023-04-25T11:43:44;22.20;99.90
17859;DHT22;35426;30.698;104.050;2023-04-25T11:46:19;22.10;99.90
17859;DHT22;35426;30.698;104.050;2023-04-25T11:48:52;22.10;99.90
17859;DHT22;35426;30.698;104.050;2023-04-25T11:51:28;22.10;99.90
17859;DHT22;35426;30.698;104.050;2023-04-25T11:54:01;22.10;99.90
17859;DHT22;35426;30.698;104.050;2023-04-25T11:56:36;22.00;99.90
17859;DHT22;35426;30.698;104.050;2023-04-25T11:59:09;21.90;99.90
17859;DHT22;35426;30.698;104.050;2023-04-25T12:01:48;21.90;99.90
17859;DHT22;35426;30.698;104.050;2023-04-25T12:04:23;21.90;99.90
17859;DHT22;35426;30.698;104.050;2023-04-25T12:06:57;21.90;99.90
17859;DHT22;35426;30.698;104.050;2023-04-25T12:09:33;21.90;99.90
17859;DHT22;35426;30.698;104.050;2023-04-25T12:12:11;21.80;99.90
17859;DHT22;35426;30.698;104.050;2023-04-25T12:14:48;21.80;99.90
17859;DHT22;35426;30.698;104.050;2023-04-25T12:17:23;21.80;99.90
17859;DHT22;35426;30.698;104.050;2023-04-25T12:19:56;21.80;99.90
17859;DHT22;35426;30.698;104.050;2023-04-25T12:22:30;21.80;99.90
17859;DHT22;35426;30.698;104.050;2023-04-25T12:25:04;21.70;99.90
17859;DHT22;35426;30.698;104.050;2023-04-25T12:27:40;21.70;99.90
17859;DHT22;35426;30.698;104.050;2023-04-25T12:30:14;21.70;99.90
17859;DHT22;35426;30.698;104.050;2023-04-25T12:32:48;21.70;99.90
17859;DHT22;35426;30.698;104.050;2023-04-25T12:35:22;21.60;99.90
17859;DHT22;35426;30.698;104.050;2023-04-25T12:37:55;21.60;99.90
17859;DHT22;35426;30.698;104.050;2023-04-25T12:40:28;21.60;99.90
17859;DHT22;35426;30.698;104.050;2023-04-25T12:43:04;21.60;99.90
17859;DHT22;35426;30.698;104.050;2023-04-25T12:45:37;21.60;99.90
17859;DHT22;35426;30.698;104.050;2023-04-25T12:48:12;21.50;99.90
17859;DHT22;35426;30.698;104.050;2023-04-25T12:50:46;21.60;99.90
17859;DHT22;35426;30.698;104.050;2023-04-25T12:53:21;21.60;99.90
17859;DHT22;35426;30.698;104.050;2023-04-25T12:55:55;21.60;99.90
17859;DHT22;35426;30.698;104.050;2023-04-25T12:58:31;21.60;99.90
17859;DHT22;35426;30.698;104.050;2023-04-25T13:01:05;21.60;99.90
17859;DHT22;35426;30.698;104.050;2023-04-25T13:03:40;21.60;99.90
17859;DHT22;35426;30.698;104.050;2023-04-25T13:06:15;21.60;99.90
17859;DHT22;35426;30.698;104.050;2023-04-25T13:08:48;21.50;99.90
17859;DHT22;35426;30.698;104.050;2023-04-25T13:11:22;21.50;99.90
17859;DHT22;35426;30.698;104.050;2023-04-25T13:13:57;21.50;99.90
17859;DHT22;35426;30.698;104.050;2023-04-25T13:16:31;21.40;99.90
17859;DHT22;35426;30.698;104.050;2023-04-25T13:19:04;21.40;99.90
17859;DHT22;35426;30.698;104.050;2023-04-25T13:21:42;21.40;99.90
17859;DHT22;35426;30.698;104.050;2023-04-25T13:24:15;21.40;99.90
17859;DHT22;35426;30.698;104.050;2023-04-25T13:26:49;21.30;99.90
17859;DHT22;35426;30.698;104.050;2023-04-25T13:29:27;21.30;99.90
17859;DHT22;35426;30.698;104.050;2023-04-25T13:32:14;21.30;99.90
17859;DHT22;35426;30.698;104.050;2023-04-25T13:34:47;21.40;99.90
17859;DHT22;35426;30.698;104.050;2023-04-25T13:37:20;21.40;99.90
17859;DHT22;35426;30.698;104.050;2023-04-25T13:39:55;21.30;99.90
17859;DHT22;35426;30.698;104.050;2023-04-25T13:42:29;21.30;99.90
17859;DHT22;35426;30.698;104.050;2023-04-25T13:45:04;21.30;99.90
17859;DHT22;35426;30.698;104.050;2023-04-25T13:47:37;21.30;99.90
17859;DHT22;35426;30.698;104.050;2023-04-25T13:50:11;21.20;99.90
17859;DHT22;35426;30.698;104.050;2023-04-25T13:52:46;21.20;99.90
17859;DHT22;35426;30.698;104.050;2023-04-25T13:55:23;21.20;99.90
17859;DHT22;35426;30.698;104.050;2023-04-25T13:57:56;21.20;99.90
17859;DHT22;35426;30.698;104.050;2023-04-25T14:00:33;21.20;99.90
17859;DHT22;35426;30.698;104.050;2023-04-25T14:03:06;21.20;99.90
17859;DHT22;35426;30.698;104.050;2023-04-25T14:05:39;21.20;99.90
17859;DHT22;35426;30.698;104.050;2023-04-25T14:08:12;21.10;99.90
17859;DHT22;35426;30.698;104.050;2023-04-25T14:10:46;21.10;99.90
17859;DHT22;35426;30.698;104.050;2023-04-25T14:13:18;21.10;99.90
17859;DHT22;35426;30.698;104.050;2023-04-25T14:15:55;21.00;99.90
17859;DHT22;35426;30.698;104.050;2023-04-25T14:18:29;20.90;99.90
17859;DHT22;35426;30.698;104.050;2023-04-25T14:21:03;20.90;99.90
17859;DHT22;35426;30.698;104.050;2023-04-25T14:23:37;20.90;99.90
17859;DHT22;35426;30.698;104.050;2023-04-25T14:26:11;20.90;99.90
17859;DHT22;35426;30.698;104.050;2023-04-25T14:28:43;20.80;99.90
17859;DHT22;35426;30.698;104.050;2023-04-25T14:31:19;20.80;99.90
17859;DHT22;35426;30.698;104.050;2023-04-25T14:33:52;20.80;99.90
17859;DHT22;35426;30.698;104.050;2023-04-25T14:36:29;20.80;99.90
17859;DHT22;35426;30.698;104.050;2023-04-25T14:39:03;20.70;99.90
17859;DHT22;35426;30.698;104.050;2023-04-25T14:41:37;20.70;99.90
17859;DHT22;35426;30.698;104.050;2023-04-25T14:44:10;20.70;99.90
17859;DHT22;35426;30.698;104.050;2023-04-25T14:46:46;20.70;99.90
17859;DHT22;35426;30.698;104.050;2023-04-25T14:49:22;20.70;99.90
17859;DHT22;35426;30.698;104.050;2023-04-25T14:51:56;20.60;99.90
17859;DHT22;35426;30.698;104.050;2023-04-25T14:54:34;20.60;99.90
17859;DHT22;35426;30.698;104.050;2023-04-25T14:57:07;20.60;99.90
17859;DHT22;35426;30.698;104.050;2023-04-25T14:59:42;20.60;99.90
17859;DHT22;35426;30.698;104.050;2023-04-25T15:02:17;20.60;99.90
17859;DHT22;35426;30.698;104.050;2023-04-25T15:04:51;20.60;99.90
17859;DHT22;35426;30.698;104.050;2023-04-25T15:07:25;20.50;99.90
17859;DHT22;35426;30.698;104.050;2023-04-25T15:09:59;20.50;99.90
17859;DHT22;35426;30.698;104.050;2023-04-25T15:12:33;20.60;99.90
17859;DHT22;35426;30.698;104.050;2023-04-25T15:15:08;20.50;99.90
17859;DHT22;35426;30.698;104.050;2023-04-25T15:17:55;20.50;99.90
17859;DHT22;35426;30.698;104.050;2023-04-25T15:20:28;20.50;99.90
17859;DHT22;35426;30.698;104.050;2023-04-25T15:23:03;20.50;99.90
17859;DHT22;35426;30.698;104.050;2023-04-25T15:25:37;20.50;99.90
17859;DHT22;35426;30.698;104.050;2023-04-25T15:28:10;20.50;99.90
17859;DHT22;35426;30.698;104.050;2023-04-25T15:30:45;20.50;99.90
17859;DHT22;35426;30.698;104.050;2023-04-25T15:33:22;20.50;99.90
17859;DHT22;35426;30.698;104.050;2023-04-25T15:36:06;20.40;99.90
17859;DHT22;35426;30.698;104.050;2023-04-25T15:38:40;20.40;99.90
17859;DHT22;35426;30.698;104.050;2023-04-25T15:41:18;20.40;99.90
17859;DHT22;35426;30.698;104.050;2023-04-25T15:43:53;20.40;99.90
17859;DHT22;35426;30.698;104.050;2023-04-25T15:46:27;20.40;99.90
17859;DHT22;35426;30.698;104.050;2023-04-25T15:49:03;20.40;99.90
17859;DHT22;35426;30.698;104.050;2023-04-25T15:51:36;20.40;99.90
17859;DHT22;35426;30.698;104.050;2023-04-25T15:54:10;20.40;99.90
17859;DHT22;35426;30.698;104.050;2023-04-25T15:56:43;20.30;99.90
17859;DHT22;35426;30.698;104.050;2023-04-25T15:59:16;20.30;99.90
17859;DHT22;35426;30.698;104.050;2023-04-25T16:01:49;20.30;99.90
17859;DHT22;35426;30.698;104.050;2023-04-25T16:04:25;20.40;99.90